sensor_id;sensor_type;location;lat;lon;timestamp;pressure;altitude;pressure_sealevel;temperature;humidity
77739;BME280;66904;59.926;30.404;2024-02-28T00:02:03;101978.19;;;4.87;71.94
77739;BME280;66904;59.926;30.404;2024-02-28T00:07:14;101980.03;;;4.85;71.93
77739;BME280;66904;59.926;30.404;2024-02-28T00:12:25;101970.34;;;4.87;72.04
77739;BME280;66904;59.926;30.404;2024-02-28T00:17:40;101968.44;;;4.92;72.54
77739;BME280;66904;59.926;30.404;2024-02-28T00:22:51;101974.59;;;4.91;72.18
77739;BME280;66904;59.926;30.404;2024-02-28T00:28:02;101967.91;;;4.81;71.78
77739;BME280;66904;59.926;30.404;2024-02-28T00:33:12;101962.63;;;4.83;72.17
77739;BME280;66904;59.926;30.404;2024-02-28T00:38:23;101971.38;;;4.82;72.05
77739;BME280;66904;59.926;30.404;2024-02-28T00:43:34;101973.34;;;4.75;72.51
77739;BME280;66904;59.926;30.404;2024-02-28T00:48:45;101964.78;;;4.70;72.35
77739;BME280;66904;59.926;30.404;2024-02-28T00:53:55;101952.56;;;4.69;72.19
77739;BME280;66904;59.926;30.404;2024-02-28T00:59:06;101972.53;;;4.73;71.73
77739;BME280;66904;59.926;30.404;2024-02-28T01:04:20;101965.44;;;4.77;72.83
77739;BME280;66904;59.926;30.404;2024-02-28T01:09:31;101973.22;;;4.80;72.83
77739;BME280;66904;59.926;30.404;2024-02-28T01:14:42;101970.59;;;4.80;72.16
77739;BME280;66904;59.926;30.404;2024-02-28T01:19:53;101972.34;;;4.79;72.12
77739;BME280;66904;59.926;30.404;2024-02-28T01:25:03;101970.53;;;4.81;72.60
77739;BME280;66904;59.926;30.404;2024-02-28T01:30:15;101967.78;;;4.86;72.24
77739;BME280;66904;59.926;30.404;2024-02-28T01:35:26;101961.56;;;4.88;72.58
77739;BME280;66904;59.926;30.404;2024-02-28T01:40:36;101962.44;;;4.89;72.41
77739;BME280;66904;59.926;30.404;2024-02-28T01:45:47;101959.13;;;4.84;72.47
77739;BME280;66904;59.926;30.404;2024-02-28T01:50:58;101969.44;;;4.88;72.11
77739;BME280;66904;59.926;30.404;2024-02-28T01:56:09;101971.03;;;4.94;72.49
77739;BME280;66904;59.926;30.404;2024-02-28T02:01:20;101977.09;;;4.94;72.37
77739;BME280;66904;59.926;30.404;2024-02-28T02:06:32;101975.41;;;4.93;72.37
77739;BME280;66904;59.926;30.404;2024-02-28T02:11:43;101975.34;;;4.95;72.28
77739;BME280;66904;59.926;30.404;2024-02-28T02:16:54;101975.53;;;4.89;72.02
77739;BME280;66904;59.926;30.404;2024-02-28T02:22:05;101973.66;;;4.94;72.29
77739;BME280;66904;59.926;30.404;2024-02-28T02:27:18;101974.44;;;4.96;72.59
77739;BME280;66904;59.926;30.404;2024-02-28T02:32:29;101974.44;;;4.96;71.80
77739;BME280;66904;59.926;30.404;2024-02-28T02:37:43;101969.31;;;4.93;72.00
77739;BME280;66904;59.926;30.404;2024-02-28T02:42:56;101972.78;;;4.93;71.95
77739;BME280;66904;59.926;30.404;2024-02-28T02:48:07;101971.19;;;4.88;72.16
77739;BME280;66904;59.926;30.404;2024-02-28T02:53:17;101966.22;;;4.80;71.74
77739;BME280;66904;59.926;30.404;2024-02-28T02:58:28;101962.16;;;4.70;71.87
77739;BME280;66904;59.926;30.404;2024-02-28T03:03:39;101965.69;;;4.67;71.86
77739;BME280;66904;59.926;30.404;2024-02-28T03:08:49;101958.84;;;4.63;72.10
77739;BME280;66904;59.926;30.404;2024-02-28T03:14:00;101971.53;;;4.77;72.45
77739;BME280;66904;59.926;30.404;2024-02-28T03:19:11;101976.53;;;4.85;71.91
77739;BME280;66904;59.926;30.404;2024-02-28T03:24:22;101976.91;;;4.73;71.91
77739;BME280;66904;59.926;30.404;2024-02-28T03:29:33;101971.00;;;4.66;71.83
77739;BME280;66904;59.926;30.404;2024-02-28T03:34:43;101975.38;;;4.65;71.96
77739;BME280;66904;59.926;30.404;2024-02-28T03:39:54;101977.81;;;4.72;72.05
77739;BME280;66904;59.926;30.404;2024-02-28T03:45:05;101988.19;;;4.75;72.09
77739;BME280;66904;59.926;30.404;2024-02-28T03:50:16;101996.03;;;4.76;71.72
77739;BME280;66904;59.926;30.404;2024-02-28T03:55:26;101991.75;;;4.74;71.47
77739;BME280;66904;59.926;30.404;2024-02-28T04:00:37;101991.88;;;4.69;71.77
77739;BME280;66904;59.926;30.404;2024-02-28T04:05:48;101998.00;;;4.68;72.16
77739;BME280;66904;59.926;30.404;2024-02-28T04:10:59;102001.50;;;4.68;71.74
77739;BME280;66904;59.926;30.404;2024-02-28T04:16:10;102006.63;;;4.72;72.09
77739;BME280;66904;59.926;30.404;2024-02-28T04:21:21;102019.53;;;4.79;71.48
77739;BME280;66904;59.926;30.404;2024-02-28T04:26:32;102014.97;;;4.86;71.71
77739;BME280;66904;59.926;30.404;2024-02-28T04:31:43;102023.53;;;4.91;72.36
77739;BME280;66904;59.926;30.404;2024-02-28T04:36:53;102018.28;;;4.91;72.25
77739;BME280;66904;59.926;30.404;2024-02-28T04:42:04;102033.13;;;4.92;71.95
77739;BME280;66904;59.926;30.404;2024-02-28T04:47:15;102034.88;;;4.91;71.79
77739;BME280;66904;59.926;30.404;2024-02-28T04:52:26;102018.28;;;4.91;72.22
77739;BME280;66904;59.926;30.404;2024-02-28T04:57:37;102012.25;;;4.89;71.46
77739;BME280;66904;59.926;30.404;2024-02-28T05:02:48;102018.38;;;4.88;71.99
77739;BME280;66904;59.926;30.404;2024-02-28T05:07:59;102025.38;;;4.87;72.06
77739;BME280;66904;59.926;30.404;2024-02-28T05:13:09;102034.88;;;4.91;71.68
77739;BME280;66904;59.926;30.404;2024-02-28T05:18:20;102034.75;;;4.96;71.88
77739;BME280;66904;59.926;30.404;2024-02-28T05:23:31;102033.72;;;5.01;71.86
77739;BME280;66904;59.926;30.404;2024-02-28T05:28:42;102022.25;;;5.04;72.02
77739;BME280;66904;59.926;30.404;2024-02-28T05:33:54;102034.56;;;5.02;71.76
77739;BME280;66904;59.926;30.404;2024-02-28T05:39:05;102037.31;;;4.97;71.64
77739;BME280;66904;59.926;30.404;2024-02-28T05:44:16;102024.38;;;4.93;71.58
77739;BME280;66904;59.926;30.404;2024-02-28T05:49:26;102021.69;;;4.94;71.68
77739;BME280;66904;59.926;30.404;2024-02-28T05:54:37;102023.28;;;5.00;71.46
77739;BME280;66904;59.926;30.404;2024-02-28T05:59:48;102027.56;;;5.02;71.75
77739;BME280;66904;59.926;30.404;2024-02-28T06:04:59;102035.34;;;5.05;72.01
77739;BME280;66904;59.926;30.404;2024-02-28T06:10:09;102026.50;;;5.08;71.53
77739;BME280;66904;59.926;30.404;2024-02-28T06:15:20;102031.56;;;5.14;71.93
77739;BME280;66904;59.926;30.404;2024-02-28T06:20:31;102028.00;;;5.16;71.23
77739;BME280;66904;59.926;30.404;2024-02-28T06:25:43;102026.09;;;5.21;71.76
77739;BME280;66904;59.926;30.404;2024-02-28T06:30:54;102034.69;;;5.27;71.82
77739;BME280;66904;59.926;30.404;2024-02-28T06:36:04;102025.78;;;5.31;70.95
77739;BME280;66904;59.926;30.404;2024-02-28T06:41:15;102025.78;;;5.31;71.20
77739;BME280;66904;59.926;30.404;2024-02-28T06:46:27;102028.09;;;5.13;70.75
77739;BME280;66904;59.926;30.404;2024-02-28T06:51:37;102029.31;;;5.02;71.12
77739;BME280;66904;59.926;30.404;2024-02-28T06:56:48;102039.88;;;5.00;71.16
77739;BME280;66904;59.926;30.404;2024-02-28T07:01:59;102035.84;;;4.89;70.82
77739;BME280;66904;59.926;30.404;2024-02-28T07:07:10;102035.88;;;4.87;70.72
77739;BME280;66904;59.926;30.404;2024-02-28T07:12:20;102043.16;;;4.78;71.26
77739;BME280;66904;59.926;30.404;2024-02-28T07:17:31;102046.69;;;4.77;70.90
77739;BME280;66904;59.926;30.404;2024-02-28T07:22:42;102047.69;;;4.73;71.46
77739;BME280;66904;59.926;30.404;2024-02-28T07:27:53;102047.41;;;4.82;71.06
77739;BME280;66904;59.926;30.404;2024-02-28T07:33:05;102043.25;;;4.75;70.96
77739;BME280;66904;59.926;30.404;2024-02-28T07:38:16;102046.88;;;4.71;71.28
77739;BME280;66904;59.926;30.404;2024-02-28T07:43:28;102046.78;;;4.74;71.09
77739;BME280;66904;59.926;30.404;2024-02-28T07:48:39;102040.28;;;4.87;71.04
77739;BME280;66904;59.926;30.404;2024-02-28T07:53:50;102028.38;;;5.04;71.24
77739;BME280;66904;59.926;30.404;2024-02-28T07:59:00;102031.41;;;5.20;71.78
77739;BME280;66904;59.926;30.404;2024-02-28T08:04:11;102026.56;;;5.34;71.17
77739;BME280;66904;59.926;30.404;2024-02-28T08:09:22;102025.34;;;5.44;70.42
77739;BME280;66904;59.926;30.404;2024-02-28T08:14:33;102023.47;;;5.49;70.87
77739;BME280;66904;59.926;30.404;2024-02-28T08:19:43;102026.19;;;5.46;70.70
77739;BME280;66904;59.926;30.404;2024-02-28T08:24:54;102020.09;;;5.44;70.52
77739;BME280;66904;59.926;30.404;2024-02-28T08:30:05;102021.28;;;5.36;70.68
77739;BME280;66904;59.926;30.404;2024-02-28T08:35:18;102018.88;;;5.28;71.22
77739;BME280;66904;59.926;30.404;2024-02-28T08:40:29;102024.00;;;5.33;70.51
77739;BME280;66904;59.926;30.404;2024-02-28T08:45:40;102017.66;;;5.40;71.28
77739;BME280;66904;59.926;30.404;2024-02-28T08:50:51;102021.81;;;5.47;70.56
77739;BME280;66904;59.926;30.404;2024-02-28T08:56:02;102015.78;;;5.43;70.74
77739;BME280;66904;59.926;30.404;2024-02-28T09:01:14;102023.47;;;5.49;70.57
77739;BME280;66904;59.926;30.404;2024-02-28T09:06:25;102028.31;;;5.61;70.66
77739;BME280;66904;59.926;30.404;2024-02-28T09:11:36;102028.00;;;5.70;70.78
77739;BME280;66904;59.926;30.404;2024-02-28T09:16:47;102026.78;;;5.81;70.28
77739;BME280;66904;59.926;30.404;2024-02-28T09:21:58;102018.00;;;5.82;70.36
77739;BME280;66904;59.926;30.404;2024-02-28T09:27:09;102024.53;;;5.70;70.50
77739;BME280;66904;59.926;30.404;2024-02-28T09:32:20;102026.69;;;5.57;69.91
77739;BME280;66904;59.926;30.404;2024-02-28T09:37:31;102019.91;;;5.50;70.54
77739;BME280;66904;59.926;30.404;2024-02-28T09:42:42;102039.03;;;5.54;70.28
77739;BME280;66904;59.926;30.404;2024-02-28T09:47:54;102043.69;;;5.46;70.69
77739;BME280;66904;59.926;30.404;2024-02-28T09:53:04;102046.41;;;5.43;70.65
77739;BME280;66904;59.926;30.404;2024-02-28T09:58:15;102045.69;;;5.38;70.08
77739;BME280;66904;59.926;30.404;2024-02-28T10:03:28;102049.31;;;5.34;70.65
77739;BME280;66904;59.926;30.404;2024-02-28T10:08:40;102055.09;;;5.45;70.63
77739;BME280;66904;59.926;30.404;2024-02-28T10:13:52;102046.22;;;5.49;70.55
77739;BME280;66904;59.926;30.404;2024-02-28T10:19:05;102047.22;;;5.45;70.38
77739;BME280;66904;59.926;30.404;2024-02-28T10:24:16;102033.69;;;5.57;71.54
77739;BME280;66904;59.926;30.404;2024-02-28T10:29:27;102025.19;;;5.77;70.50
77739;BME280;66904;59.926;30.404;2024-02-28T10:34:44;102028.22;;;5.91;71.16
77739;BME280;66904;59.926;30.404;2024-02-28T10:39:55;102026.97;;;6.02;70.61
77739;BME280;66904;59.926;30.404;2024-02-28T10:45:09;102024.97;;;6.09;70.79
77739;BME280;66904;59.926;30.404;2024-02-28T10:50:21;102028.06;;;6.20;70.69
77739;BME280;66904;59.926;30.404;2024-02-28T10:55:42;102013.22;;;6.19;70.01
77739;BME280;66904;59.926;30.404;2024-02-28T11:00:54;102027.69;;;6.31;70.36
77739;BME280;66904;59.926;30.404;2024-02-28T11:06:16;102018.53;;;6.42;69.81
77739;BME280;66904;59.926;30.404;2024-02-28T11:11:31;102023.59;;;6.47;70.40
77739;BME280;66904;59.926;30.404;2024-02-28T11:16:42;102029.69;;;6.49;70.28
77739;BME280;66904;59.926;30.404;2024-02-28T11:21:58;102028.69;;;6.51;69.96
77739;BME280;66904;59.926;30.404;2024-02-28T11:27:11;102032.19;;;6.52;69.87
77739;BME280;66904;59.926;30.404;2024-02-28T11:32:27;102018.00;;;6.33;69.94
77739;BME280;66904;59.926;30.404;2024-02-28T11:37:40;102013.69;;;6.30;70.62
77739;BME280;66904;59.926;30.404;2024-02-28T11:42:55;102012.53;;;6.14;69.23
77739;BME280;66904;59.926;30.404;2024-02-28T11:48:07;102012.25;;;5.97;70.76
77739;BME280;66904;59.926;30.404;2024-02-28T11:53:17;102015.81;;;5.96;69.76
77739;BME280;66904;59.926;30.404;2024-02-28T11:58:28;102013.59;;;5.82;69.59
77739;BME280;66904;59.926;30.404;2024-02-28T12:03:45;102029.06;;;5.65;69.83
77739;BME280;66904;59.926;30.404;2024-02-28T12:08:56;102026.03;;;5.51;70.65
77739;BME280;66904;59.926;30.404;2024-02-28T12:14:07;102018.16;;;5.51;70.98
77739;BME280;66904;59.926;30.404;2024-02-28T12:19:19;101998.22;;;5.45;70.37
77739;BME280;66904;59.926;30.404;2024-02-28T12:24:33;102015.47;;;5.52;70.82
77739;BME280;66904;59.926;30.404;2024-02-28T12:29:44;102011.25;;;5.48;70.26
77739;BME280;66904;59.926;30.404;2024-02-28T12:34:54;102017.47;;;5.44;71.16
77739;BME280;66904;59.926;30.404;2024-02-28T12:40:05;102005.38;;;5.40;70.71
77739;BME280;66904;59.926;30.404;2024-02-28T12:45:16;102006.88;;;5.47;70.60
77739;BME280;66904;59.926;30.404;2024-02-28T12:50:28;102005.88;;;5.51;70.76
77739;BME280;66904;59.926;30.404;2024-02-28T12:55:39;101995.16;;;5.59;70.81
77739;BME280;66904;59.926;30.404;2024-02-28T13:00:50;101995.56;;;5.73;70.55
77739;BME280;66904;59.926;30.404;2024-02-28T13:06:00;101998.72;;;5.83;69.92
77739;BME280;66904;59.926;30.404;2024-02-28T13:11:11;101990.47;;;5.67;70.18
77739;BME280;66904;59.926;30.404;2024-02-28T13:16:22;101983.00;;;5.56;70.88
77739;BME280;66904;59.926;30.404;2024-02-28T13:21:33;101993.19;;;5.65;70.82
77739;BME280;66904;59.926;30.404;2024-02-28T13:26:44;101989.47;;;5.71;70.31
77739;BME280;66904;59.926;30.404;2024-02-28T13:31:54;101978.19;;;5.69;70.53
77739;BME280;66904;59.926;30.404;2024-02-28T13:37:05;101991.88;;;5.77;70.15
77739;BME280;66904;59.926;30.404;2024-02-28T13:42:16;101982.97;;;5.83;71.13
77739;BME280;66904;59.926;30.404;2024-02-28T13:47:27;101974.78;;;5.92;70.61
77739;BME280;66904;59.926;30.404;2024-02-28T13:52:37;101971.41;;;5.88;70.11
77739;BME280;66904;59.926;30.404;2024-02-28T13:57:48;101973.63;;;5.74;70.58
77739;BME280;66904;59.926;30.404;2024-02-28T14:02:59;101966.78;;;5.70;71.13
77739;BME280;66904;59.926;30.404;2024-02-28T14:08:10;101970.06;;;5.77;70.33
77739;BME280;66904;59.926;30.404;2024-02-28T14:13:22;101975.09;;;5.83;71.05
77739;BME280;66904;59.926;30.404;2024-02-28T14:18:33;101961.03;;;5.84;70.17
77739;BME280;66904;59.926;30.404;2024-02-28T14:23:44;101961.09;;;5.82;70.38
77739;BME280;66904;59.926;30.404;2024-02-28T14:28:55;101948.00;;;5.81;70.78
77739;BME280;66904;59.926;30.404;2024-02-28T14:34:06;101944.38;;;5.86;70.48
77739;BME280;66904;59.926;30.404;2024-02-28T14:39:17;101931.25;;;5.86;70.50
77739;BME280;66904;59.926;30.404;2024-02-28T14:44:29;101932.06;;;5.87;70.50
77739;BME280;66904;59.926;30.404;2024-02-28T14:49:39;101926.00;;;5.85;70.06
77739;BME280;66904;59.926;30.404;2024-02-28T14:54:50;101915.63;;;5.80;70.63
77739;BME280;66904;59.926;30.404;2024-02-28T15:00:01;101916.84;;;5.71;70.56
77739;BME280;66904;59.926;30.404;2024-02-28T15:05:18;101921.28;;;5.69;70.80
77739;BME280;66904;59.926;30.404;2024-02-28T15:10:29;101916.69;;;5.76;70.77
77739;BME280;66904;59.926;30.404;2024-02-28T15:15:39;101914.00;;;5.78;70.60
77739;BME280;66904;59.926;30.404;2024-02-28T15:20:51;101919.13;;;5.81;70.97
77739;BME280;66904;59.926;30.404;2024-02-28T15:26:04;101912.88;;;5.85;71.07
77739;BME280;66904;59.926;30.404;2024-02-28T15:31:15;101913.75;;;5.84;70.38
77739;BME280;66904;59.926;30.404;2024-02-28T15:36:26;101929.53;;;5.84;71.07
77739;BME280;66904;59.926;30.404;2024-02-28T15:41:36;101932.22;;;5.82;71.12
77739;BME280;66904;59.926;30.404;2024-02-28T15:46:47;101944.09;;;5.67;70.77
77739;BME280;66904;59.926;30.404;2024-02-28T15:51:58;101938.31;;;5.58;70.94
77739;BME280;66904;59.926;30.404;2024-02-28T15:57:09;101944.31;;;5.61;70.62
77739;BME280;66904;59.926;30.404;2024-02-28T16:02:20;101932.38;;;5.53;71.21
77739;BME280;66904;59.926;30.404;2024-02-28T16:07:31;101929.88;;;5.48;71.20
77739;BME280;66904;59.926;30.404;2024-02-28T16:12:41;101933.22;;;5.53;71.33
77739;BME280;66904;59.926;30.404;2024-02-28T16:17:52;101931.44;;;5.54;70.90
77739;BME280;66904;59.926;30.404;2024-02-28T16:23:06;101926.94;;;5.57;70.95
77739;BME280;66904;59.926;30.404;2024-02-28T16:28:17;101920.84;;;5.57;71.42
77739;BME280;66904;59.926;30.404;2024-02-28T16:33:27;101920.00;;;5.56;70.84
77739;BME280;66904;59.926;30.404;2024-02-28T16:38:38;101923.44;;;5.57;70.78
77739;BME280;66904;59.926;30.404;2024-02-28T16:43:49;101908.75;;;5.53;71.36
77739;BME280;66904;59.926;30.404;2024-02-28T16:49:01;101894.00;;;5.49;71.08
77739;BME280;66904;59.926;30.404;2024-02-28T16:54:12;101906.13;;;5.53;70.61
77739;BME280;66904;59.926;30.404;2024-02-28T16:59:22;101899.13;;;5.53;70.92
77739;BME280;66904;59.926;30.404;2024-02-28T17:04:33;101890.41;;;5.51;71.06
77739;BME280;66904;59.926;30.404;2024-02-28T17:09:48;101892.19;;;5.51;71.50
77739;BME280;66904;59.926;30.404;2024-02-28T17:14:59;101887.03;;;5.48;71.45
77739;BME280;66904;59.926;30.404;2024-02-28T17:20:10;101882.75;;;5.45;71.02
77739;BME280;66904;59.926;30.404;2024-02-28T17:25:21;101874.19;;;5.40;71.32
77739;BME280;66904;59.926;30.404;2024-02-28T17:30:32;101869.78;;;5.41;71.09
77739;BME280;66904;59.926;30.404;2024-02-28T17:35:43;101869.25;;;5.31;70.85
77739;BME280;66904;59.926;30.404;2024-02-28T17:40:54;101866.84;;;5.25;70.92
77739;BME280;66904;59.926;30.404;2024-02-28T17:46:05;101874.06;;;5.18;71.64
77739;BME280;66904;59.926;30.404;2024-02-28T17:51:15;101866.03;;;5.23;71.35
77739;BME280;66904;59.926;30.404;2024-02-28T17:56:26;101857.00;;;5.32;71.71
77739;BME280;66904;59.926;30.404;2024-02-28T18:01:37;101860.25;;;5.38;71.11
77739;BME280;66904;59.926;30.404;2024-02-28T18:06:48;101849.63;;;5.43;71.89
77739;BME280;66904;59.926;30.404;2024-02-28T18:11:58;101853.91;;;5.45;71.42
77739;BME280;66904;59.926;30.404;2024-02-28T18:17:09;101859.09;;;5.47;71.39
77739;BME280;66904;59.926;30.404;2024-02-28T18:22:20;101862.88;;;5.38;71.26
77739;BME280;66904;59.926;30.404;2024-02-28T18:27:31;101857.72;;;5.10;71.65
77739;BME280;66904;59.926;30.404;2024-02-28T18:32:41;101838.69;;;5.04;72.05
77739;BME280;66904;59.926;30.404;2024-02-28T18:37:52;101832.41;;;5.09;71.91
77739;BME280;66904;59.926;30.404;2024-02-28T18:43:04;101828.72;;;5.15;71.75
77739;BME280;66904;59.926;30.404;2024-02-28T18:48:15;101827.75;;;5.17;71.53
77739;BME280;66904;59.926;30.404;2024-02-28T18:53:26;101827.63;;;5.20;71.37
77739;BME280;66904;59.926;30.404;2024-02-28T18:58:37;101824.00;;;5.25;71.90
77739;BME280;66904;59.926;30.404;2024-02-28T19:03:48;101822.09;;;5.30;71.90
77739;BME280;66904;59.926;30.404;2024-02-28T19:08:59;101821.34;;;5.26;71.68
77739;BME280;66904;59.926;30.404;2024-02-28T19:14:10;101829.72;;;5.11;71.64
77739;BME280;66904;59.926;30.404;2024-02-28T19:19:22;101800.53;;;4.95;71.68
77739;BME280;66904;59.926;30.404;2024-02-28T19:24:33;101796.91;;;4.99;72.04
77739;BME280;66904;59.926;30.404;2024-02-28T19:29:44;101793.97;;;5.08;71.55
77739;BME280;66904;59.926;30.404;2024-02-28T19:34:56;101806.88;;;5.14;72.02
77739;BME280;66904;59.926;30.404;2024-02-28T19:40:07;101795.44;;;5.17;71.35
77739;BME280;66904;59.926;30.404;2024-02-28T19:45:18;101787.63;;;5.15;71.99
77739;BME280;66904;59.926;30.404;2024-02-28T19:50:29;101783.13;;;5.19;71.49
77739;BME280;66904;59.926;30.404;2024-02-28T19:55:40;101785.75;;;5.19;71.82
77739;BME280;66904;59.926;30.404;2024-02-28T20:00:51;101789.25;;;5.18;71.37
77739;BME280;66904;59.926;30.404;2024-02-28T20:06:02;101775.38;;;5.16;71.58
77739;BME280;66904;59.926;30.404;2024-02-28T20:11:17;101776.38;;;5.12;72.09
77739;BME280;66904;59.926;30.404;2024-02-28T20:16:29;101772.03;;;5.11;71.97
77739;BME280;66904;59.926;30.404;2024-02-28T20:21:40;101795.47;;;5.15;72.04
77739;BME280;66904;59.926;30.404;2024-02-28T20:26:51;101790.22;;;5.15;72.35
77739;BME280;66904;59.926;30.404;2024-02-28T20:32:03;101793.00;;;5.11;71.51
77739;BME280;66904;59.926;30.404;2024-02-28T20:37:14;101788.69;;;5.10;71.84
77739;BME280;66904;59.926;30.404;2024-02-28T20:42:25;101800.97;;;5.08;72.11
77739;BME280;66904;59.926;30.404;2024-02-28T20:47:36;101793.06;;;5.09;72.18
77739;BME280;66904;59.926;30.404;2024-02-28T20:52:48;101786.91;;;5.10;72.25
77739;BME280;66904;59.926;30.404;2024-02-28T20:57:59;101785.13;;;5.11;72.26
77739;BME280;66904;59.926;30.404;2024-02-28T21:03:09;101791.25;;;5.11;72.34
77739;BME280;66904;59.926;30.404;2024-02-28T21:08:20;101782.50;;;5.11;72.45
77739;BME280;66904;59.926;30.404;2024-02-28T21:13:31;101772.09;;;5.09;72.01
77739;BME280;66904;59.926;30.404;2024-02-28T21:18:41;101784.84;;;5.20;72.09
77739;BME280;66904;59.926;30.404;2024-02-28T21:23:53;101777.66;;;5.25;72.48
77739;BME280;66904;59.926;30.404;2024-02-28T21:29:03;101774.16;;;5.25;72.09
77739;BME280;66904;59.926;30.404;2024-02-28T21:34:14;101775.94;;;5.24;71.92
77739;BME280;66904;59.926;30.404;2024-02-28T21:39:25;101764.69;;;5.20;71.94
77739;BME280;66904;59.926;30.404;2024-02-28T21:44:38;101754.59;;;5.10;72.19
77739;BME280;66904;59.926;30.404;2024-02-28T21:49:50;101767.50;;;5.16;72.47
77739;BME280;66904;59.926;30.404;2024-02-28T21:55:05;101772.66;;;5.17;72.32
77739;BME280;66904;59.926;30.404;2024-02-28T22:00:17;101764.97;;;5.13;72.54
77739;BME280;66904;59.926;30.404;2024-02-28T22:05:28;101765.78;;;5.15;72.64
77739;BME280;66904;59.926;30.404;2024-02-28T22:10:40;101758.88;;;5.12;72.68
77739;BME280;66904;59.926;30.404;2024-02-28T22:15:51;101762.13;;;5.19;72.05
77739;BME280;66904;59.926;30.404;2024-02-28T22:21:02;101784.94;;;5.17;72.04
77739;BME280;66904;59.926;30.404;2024-02-28T22:26:12;101792.00;;;5.15;72.26
77739;BME280;66904;59.926;30.404;2024-02-28T22:31:23;101780.50;;;5.19;72.74
77739;BME280;66904;59.926;30.404;2024-02-28T22:36:34;101775.81;;;5.27;72.33
77739;BME280;66904;59.926;30.404;2024-02-28T22:41:44;101773.91;;;5.32;72.37
77739;BME280;66904;59.926;30.404;2024-02-28T22:46:56;101763.44;;;5.31;72.74
77739;BME280;66904;59.926;30.404;2024-02-28T22:52:07;101769.44;;;5.34;72.79
77739;BME280;66904;59.926;30.404;2024-02-28T22:57:17;101766.91;;;5.33;72.58
77739;BME280;66904;59.926;30.404;2024-02-28T23:02:28;101744.41;;;5.26;72.83
77739;BME280;66904;59.926;30.404;2024-02-28T23:07:39;101759.94;;;5.32;72.75
77739;BME280;66904;59.926;30.404;2024-02-28T23:12:50;101754.56;;;5.35;72.73
77739;BME280;66904;59.926;30.404;2024-02-28T23:18:01;101749.28;;;5.36;72.15
77739;BME280;66904;59.926;30.404;2024-02-28T23:23:12;101745.72;;;5.37;72.61
77739;BME280;66904;59.926;30.404;2024-02-28T23:28:23;101743.22;;;5.34;72.70
77739;BME280;66904;59.926;30.404;2024-02-28T23:33:33;101749.31;;;5.35;72.70
77739;BME280;66904;59.926;30.404;2024-02-28T23:38:45;101741.63;;;5.30;72.64
77739;BME280;66904;59.926;30.404;2024-02-28T23:43:56;101749.31;;;5.35;72.17
77739;BME280;66904;59.926;30.404;2024-02-28T23:49:06;101747.56;;;5.35;72.78
77739;BME280;66904;59.926;30.404;2024-02-28T23:54:17;101745.78;;;5.36;72.62
77739;BME280;66904;59.926;30.404;2024-02-28T23:59:28;101740.66;;;5.33;72.51
